createdAt,value
2022-12-09T00:04:38.970Z,99978.68
2022-12-09T00:09:45.014Z,99980.83
2022-12-09T00:14:50.819Z,99982.79
2022-12-09T00:19:56.501Z,99980.01
2022-12-09T00:25:02.738Z,99978.84
2022-12-09T00:30:11.640Z,99980.52
2022-12-09T00:35:18.010Z,99977.95
2022-12-09T00:40:23.947Z,99979.80
2022-12-09T00:45:30.075Z,99981.48
2022-12-09T00:50:35.954Z,99981.93
2022-12-09T00:55:42.108Z,99983.09
2022-12-09T01:00:48.207Z,99982.88
2022-12-09T01:05:54.503Z,99974.14
2022-12-09T01:11:00.596Z,99970.97
2022-12-09T01:16:15.848Z,99970.38
2022-12-09T01:21:22.150Z,99970.89
2022-12-09T01:26:28.222Z,99972.73
2022-12-09T01:31:34.536Z,99969.24
2022-12-09T01:36:42.271Z,99963.02
2022-12-09T01:41:51.285Z,99965.95
2022-12-09T01:46:59.003Z,99966.75
2022-12-09T01:52:13.610Z,99966.16
2022-12-09T01:57:19.805Z,99964.36
2022-12-09T02:02:30.917Z,99960.63
2022-12-09T02:07:38.358Z,99961.06
2022-12-09T02:12:54.529Z,99958.79
2022-12-09T02:18:07.778Z,99951.59
2022-12-09T02:23:20.095Z,99951.45
2022-12-09T02:28:58.004Z,99948.63
2022-12-09T02:34:17.420Z,99945.86
2022-12-09T02:39:30.524Z,99943.57
2022-12-09T02:44:38.979Z,99946.65
2022-12-09T02:49:48.380Z,99944.50
2022-12-09T02:54:55.389Z,99944.02
2022-12-09T03:00:01.733Z,99944.67
2022-12-09T03:05:16.967Z,99951.75
2022-12-09T03:10:28.974Z,99951.85
2022-12-09T03:15:37.783Z,99947.27
2022-12-09T03:20:46.223Z,99943.71
2022-12-09T03:25:54.367Z,99939.73
2022-12-09T03:31:05.578Z,99943.61
2022-12-09T03:36:14.786Z,99941.98
2022-12-09T03:41:27.061Z,99941.59
2022-12-09T03:46:33.267Z,99941.11
2022-12-09T03:51:44.481Z,99939.62
2022-12-09T03:56:54.447Z,99937.45
2022-12-09T04:02:01.243Z,99938.83
2022-12-09T04:07:08.082Z,99935.32
2022-12-09T04:12:20.517Z,99943.67
2022-12-09T04:17:26.606Z,99943.98
2022-12-09T04:22:32.406Z,99936.74
2022-12-09T04:27:38.392Z,99936.95
2022-12-09T04:32:44.309Z,99935.72
2022-12-09T04:37:50.435Z,99933.39
2022-12-09T04:42:57.381Z,99938.29
2022-12-09T04:48:03.358Z,99934.17
2022-12-09T04:53:10.358Z,99935.88
2022-12-09T04:58:16.378Z,99935.55
2022-12-09T05:03:22.534Z,99936.98
2022-12-09T05:08:31.699Z,99938.05
2022-12-09T05:13:38.703Z,99936.11
2022-12-09T05:18:45.684Z,99934.37
2022-12-09T05:23:51.826Z,99936.95
2022-12-09T05:28:57.899Z,99937.76
2022-12-09T05:34:03.847Z,99931.33
2022-12-09T05:39:10.524Z,99931.29
2022-12-09T05:44:16.616Z,99928.91
2022-12-09T05:49:23.023Z,99928.84
2022-12-09T05:54:29.554Z,99934.34
2022-12-09T05:59:36.072Z,99939.41
2022-12-09T06:04:42.193Z,99939.20
2022-12-09T06:09:48.272Z,99943.55
2022-12-09T06:14:54.951Z,99949.62
2022-12-09T06:20:01.078Z,99948.94
2022-12-09T06:25:09.160Z,99949.37
2022-12-09T06:30:16.186Z,99951.55
2022-12-09T06:35:22.257Z,99953.25
2022-12-09T06:40:28.404Z,99955.30
2022-12-09T06:45:35.499Z,99955.08
2022-12-09T06:50:42.789Z,99955.55
2022-12-09T06:55:48.899Z,99959.78
2022-12-09T07:00:55.153Z,99958.98
2022-12-09T07:06:01.785Z,99956.30
2022-12-09T07:11:08.276Z,99954.12
2022-12-09T07:16:14.322Z,99950.66
2022-12-09T07:21:22.717Z,99953.16
2022-12-09T07:26:30.309Z,99950.98
2022-12-09T07:31:37.381Z,99943.14
2022-12-09T07:36:43.384Z,99937.98
2022-12-09T07:41:53.871Z,99937.59
2022-12-09T07:47:00.223Z,99941.77
2022-12-09T07:52:06.511Z,99944.11
2022-12-09T07:57:12.573Z,99946.14
2022-12-09T08:02:18.384Z,99944.80
2022-12-09T08:07:24.701Z,99943.31
2022-12-09T08:12:30.851Z,99940.63
2022-12-09T08:17:36.865Z,99944.46
2022-12-09T08:22:43.500Z,99946.27
2022-12-09T08:27:49.387Z,99951.70
2022-12-09T08:32:55.724Z,99958.66
2022-12-09T08:38:02.280Z,99958.36
2022-12-09T08:43:09.638Z,99959.77
2022-12-09T08:48:15.963Z,99953.96
2022-12-09T08:53:22.187Z,99956.88
2022-12-09T08:58:28.125Z,99963.75
2022-12-09T09:03:34.599Z,99966.32
2022-12-09T09:08:41.674Z,99961.33
2022-12-09T09:13:51.789Z,99958.41
2022-12-09T09:18:57.729Z,99958.08
2022-12-09T09:24:10.455Z,99954.14
2022-12-09T09:29:19.034Z,99955.72
2022-12-09T09:34:26.122Z,99952.30
2022-12-09T09:39:32.183Z,99944.77
2022-12-09T09:44:41.176Z,99947.19
2022-12-09T09:49:54.420Z,99944.66
2022-12-09T09:55:13.202Z,99944.31
2022-12-09T10:00:27.131Z,99943.14
2022-12-09T10:05:36.180Z,99941.60
2022-12-09T10:10:52.510Z,99941.97
2022-12-09T10:16:09.375Z,99941.82
2022-12-09T10:21:18.843Z,99947.33
2022-12-09T10:26:27.502Z,99946.65
2022-12-09T10:31:33.649Z,99945.80
2022-12-09T10:36:43.292Z,99945.65
2022-12-09T10:42:12.142Z,99947.03
2022-12-09T10:47:26.386Z,99947.03
2022-12-09T10:52:43.145Z,99945.14
2022-12-09T10:57:49.269Z,99945.47
2022-12-09T11:02:56.808Z,99940.96
2022-12-09T11:08:04.171Z,99934.89
2022-12-09T11:13:20.197Z,99933.67
2022-12-09T11:18:29.141Z,99930.73
2022-12-09T11:23:35.716Z,99932.95
2022-12-09T11:28:42.098Z,99933.60
2022-12-09T11:33:54.247Z,99928.59
2022-12-09T11:39:18.534Z,99926.98
2022-12-09T11:44:30.209Z,99923.01
2022-12-09T11:49:43.741Z,99915.70
2022-12-09T11:55:04.055Z,99911.91
2022-12-09T12:00:19.244Z,99915.60
2022-12-09T12:05:29.699Z,99913.81
2022-12-09T12:10:40.836Z,99905.95
2022-12-09T12:15:55.670Z,99901.52
2022-12-09T12:21:20.121Z,99899.98
2022-12-09T12:26:28.960Z,99904.83
2022-12-09T12:31:51.675Z,99910.10
2022-12-09T12:37:07.864Z,99911.92
2022-12-09T12:42:25.741Z,99913.17
2022-12-09T12:47:40.097Z,99912.33
2022-12-09T12:52:57.267Z,99908.05
2022-12-09T12:58:10.722Z,99906.52
2022-12-09T13:03:24.623Z,99909.29
2022-12-09T13:08:37.344Z,99905.35
2022-12-09T13:13:48.585Z,99907.97
2022-12-09T13:18:58.741Z,99915.73
2022-12-09T13:24:26.489Z,99914.20
2022-12-09T13:29:43.184Z,99914.08
2022-12-09T13:34:54.483Z,99917.01
2022-12-09T13:40:01.025Z,99916.15
2022-12-09T13:45:14.550Z,99917.02
2022-12-09T13:50:31.146Z,99923.19
2022-12-09T13:55:49.492Z,99930.02
2022-12-09T14:01:12.616Z,99941.75
2022-12-09T14:06:24.092Z,99947.83
2022-12-09T14:11:47.290Z,99943.15
2022-12-09T14:16:54.484Z,99945.80
2022-12-09T14:22:31.000Z,99948.60
2022-12-09T14:27:37.266Z,99949.45
2022-12-09T14:32:56.098Z,99952.30
2022-12-09T14:38:15.425Z,99952.06
2022-12-09T14:43:35.985Z,99935.64
2022-12-09T14:48:46.336Z,99937.63
2022-12-09T14:53:57.018Z,99935.02
2022-12-09T14:59:07.123Z,99927.19
2022-12-09T15:04:24.275Z,99923.12
2022-12-09T15:09:30.232Z,99924.38
2022-12-09T15:14:37.441Z,99925.02
2022-12-09T15:20:00.479Z,99920.53
2022-12-09T15:25:16.698Z,99913.34
2022-12-09T15:30:25.388Z,99908.45
2022-12-09T15:35:33.812Z,99911.05
2022-12-09T15:41:05.252Z,99920.35
2022-12-09T15:46:13.258Z,99919.15
2022-12-09T15:51:22.072Z,99915.56
2022-12-09T15:56:33.119Z,99921.23
2022-12-09T16:01:39.169Z,99910.54
2022-12-09T16:06:45.678Z,99907.31
2022-12-09T16:11:53.766Z,99903.19
2022-12-09T16:17:02.148Z,99894.30
2022-12-09T16:22:17.475Z,99886.38
2022-12-09T16:27:25.791Z,99877.20
2022-12-09T16:32:38.987Z,99871.67
2022-12-09T16:38:06.313Z,99876.73
2022-12-09T16:43:24.192Z,99884.86
2022-12-09T16:48:30.932Z,99883.75
2022-12-09T16:53:45.900Z,99884.98
2022-12-09T16:58:52.836Z,99875.97
2022-12-09T17:04:04.150Z,99877.58
2022-12-09T17:09:11.935Z,99871.63
2022-12-09T17:14:18.172Z,99865.29
2022-12-09T17:19:24.120Z,99872.10
2022-12-09T17:24:30.209Z,99876.77
2022-12-09T17:29:37.247Z,99879.43
2022-12-09T17:34:43.250Z,99882.01
2022-12-09T17:39:55.633Z,99887.76
2022-12-09T17:45:03.433Z,99885.68
2022-12-09T17:50:11.047Z,99882.60
2022-12-09T17:55:17.508Z,99887.55
2022-12-09T18:00:24.187Z,99893.17
2022-12-09T18:05:29.978Z,99885.77
2022-12-09T18:10:36.156Z,99883.70
2022-12-09T18:15:41.997Z,99884.21
2022-12-09T18:20:47.920Z,99881.35
2022-12-09T18:25:53.812Z,99882.23
2022-12-09T18:30:59.617Z,99881.08
2022-12-09T18:36:11.649Z,99879.42
2022-12-09T18:41:24.648Z,99870.76
2022-12-09T18:46:33.153Z,99863.47
2022-12-09T18:51:40.589Z,99860.63
2022-12-09T18:56:46.561Z,99865.09
2022-12-09T19:01:53.615Z,99864.88
2022-12-09T19:07:00.741Z,99863.49
2022-12-09T19:12:38.401Z,99861.81
2022-12-09T19:17:34.014Z,99856.73
2022-12-09T19:22:39.966Z,99865.29
2022-12-09T19:27:47.062Z,99864.42
2022-12-09T19:32:53.681Z,99861.00
2022-12-09T19:38:01.555Z,99858.79
2022-12-09T19:43:08.586Z,99864.11
2022-12-09T19:48:15.025Z,99864.81
2022-12-09T19:53:20.742Z,99861.88
2022-12-09T19:58:26.446Z,99863.23
2022-12-09T20:03:32.247Z,99857.59
2022-12-09T20:08:38.739Z,99850.27
2022-12-09T20:13:45.465Z,99853.67
2022-12-09T20:18:55.125Z,99855.17
2022-12-09T20:24:02.882Z,99850.55
2022-12-09T20:29:11.056Z,99848.84
2022-12-09T20:34:18.125Z,99849.54
2022-12-09T20:39:24.419Z,99843.55
2022-12-09T20:44:32.293Z,99838.95
2022-12-09T20:49:38.549Z,99835.74
2022-12-09T20:54:44.358Z,99825.85
2022-12-09T20:59:50.275Z,99833.17
2022-12-09T21:04:56.193Z,99828.91
2022-12-09T21:10:02.175Z,99821.45
2022-12-09T21:15:10.521Z,99817.03
2022-12-09T21:20:44.373Z,99821.66
2022-12-09T21:25:50.766Z,99823.67
2022-12-09T21:30:56.851Z,99817.36
2022-12-09T21:36:04.137Z,99811.04
2022-12-09T21:41:12.385Z,99805.91
2022-12-09T21:46:20.089Z,99804.88
2022-12-09T21:51:26.646Z,99809.65
2022-12-09T21:56:35.757Z,99804.85
2022-12-09T22:01:43.146Z,99802.63
2022-12-09T22:06:50.613Z,99803.81
2022-12-09T22:11:56.532Z,99798.69
2022-12-09T22:17:02.430Z,99793.23
2022-12-09T22:22:09.309Z,99786.06
2022-12-09T22:27:16.062Z,99780.43
2022-12-09T22:32:22.026Z,99780.63
2022-12-09T22:37:44.193Z,99779.60
2022-12-09T22:42:50.305Z,99777.55
2022-12-09T22:57:39.833Z,99759.48
2022-12-09T23:02:45.575Z,99754.85
2022-12-09T23:07:51.954Z,99746.61
2022-12-09T23:12:58.564Z,99736.54
2022-12-09T23:18:04.552Z,99734.65
2022-12-09T23:23:10.642Z,99726.77
2022-12-09T23:28:16.929Z,99730.36
2022-12-09T23:33:22.749Z,99734.48
2022-12-09T23:38:28.580Z,99738.23
2022-12-09T23:43:35.668Z,99739.92
2022-12-09T23:48:41.446Z,99732.59
2022-12-09T23:53:49.008Z,99722.52
2022-12-09T23:58:57.740Z,99722.00
